Accueil
METAR-TAF:

METAR-TAF

Aéroports :

Dole, France

Aéroport de Dole-Jura

latitude: 47-02-34N, longitude: 005-26-06E, altitude: 196 m

Observation

Le bulletin a été fait il y a 21 minutes, à 22:30 UTC
Vent 4 kt de est/nord-est
Température 11°C
Humidité 100%
Pression 1016 hPa
Visibilité 10 km ou plus
pas de nuages en-dessous de 1500 mètres et pas de cumulonimbus.

METAR: LFGJ 242230Z AUTO 06004KT CAVOK 11/11 Q1016

Heure: 00:51 (22:51 UTC)

Prévision

Le bulletin a été fait il y a 8 heures et 51 minutes, à 14:00 UTC
Prévision valable du 24 à 15 UTC au 24 à 24 UTC
Vent 6 kt de sud-ouest
Visibilité 10 km ou plus
Quelques nuages à une hauteur de 3500 ft
Evoluant progressivement
du 24 à 16 UTC au 24 à 18 UTC
Visibilité 10 km ou plus
pas de nuages en-dessous de 1500 mètres et pas de cumulonimbus.

TAF: LFGJ 241400Z 2415/2424 22006KT 9999 FEW035 BECMG 2416/2418 CAVOK

Observations et prévisions météorologiques de plus de 4000 aéroports (messages METAR et TAF).

Les stations disponibles sont représentées par des disques jaunes et rouges sur la carte.

Passer la souris dessus pour voir le nom de la station.

Cliquer dessus pour voir les observations et prévisions météorologiques.

Pour changer de carte: cliquez sur les boutons verts avec une croix noire pour zoomer, sur le bouton vert avec un tiret pour effectuer un zoom arrière, ou sur les flèches vertes pour les cartes adjacentes.


METAR-TAF: